Time;durP1;ratioP1;P1;durP2;ratioP2;P2;SDS_P1;SDS_P2;PMS_P1;PMS_P2;Temp;Humidity;BMP_temperature;BMP_pressure;BME280_temperature;BME280_humidity;BME280_pressure;Samples;Min_cycle;Max_cycle;Signal;HPM_P1;HPM_P2
2022/01/12 00:01:34;;;;;;;;;;;2.80;1.00;;;;;;5058903;28;19956;-78
2022/01/12 00:04:00;;;;;;;;;;;2.80;1.00;;;;;;5059320;28;19913;-78
2022/01/12 00:06:25;;;;;;;;;;;2.80;8.80;;;;;;5059613;28;19959;-78
2022/01/12 00:08:51;;;;;;;;;;;2.70;99.90;;;;;;5058740;28;19913;-78
2022/01/12 00:11:19;;;;;;;;;;;2.70;1.00;;;;;;5060878;28;19970;-78
2022/01/12 00:13:45;;;;;;;;;;;2.60;1.00;;;;;;5059289;28;19913;-78
2022/01/12 00:16:11;;;;;;;;;;;2.50;91.40;;;;;;5062225;28;19908;-77
2022/01/12 00:18:36;;;;;;;;;;;2.50;99.90;;;;;;5059966;28;19917;-78
2022/01/12 00:21:02;;;;;;;;;;;2.50;1.00;;;;;;5059476;28;19913;-78
2022/01/12 00:23:27;;;;;;;;;;;2.40;31.40;;;;;;5042462;28;20004;-78
2022/01/12 00:33:55;;;;;;;;;;;2.40;99.90;;;;;;5057481;28;20556;-78
2022/01/12 00:36:21;;;;;;;;;;;2.40;99.90;;;;;;5060214;28;19913;-78
2022/01/12 00:38:47;;;;;;;;;;;2.30;1.00;;;;;;5055512;28;19923;-78
2022/01/12 00:41:14;;;;;;;;;;;2.30;1.00;;;;;;5041140;28;19932;-78
2022/01/12 00:43:42;;;;;;;;;;;2.30;1.00;;;;;;5056061;28;19920;-78
2022/01/12 00:46:08;;;;;;;;;;;2.30;1.00;;;;;;5038277;28;19979;-78
2022/01/12 00:48:36;;;;;;;;;;;2.30;1.00;;;;;;5040305;28;19917;-78
2022/01/12 00:51:02;;;;;;;;;;;2.30;1.00;;;;;;5038920;28;19917;-77
2022/01/12 00:53:28;;;;;;;;;;;2.30;1.00;;;;;;5056662;28;19982;-78
2022/01/12 00:55:53;;;;;;;;;;;2.20;1.00;;;;;;5038964;28;19912;-78
2022/01/12 00:58:19;;;;;;;;;;;2.20;1.00;;;;;;5056013;28;19959;-78
2022/01/12 01:00:44;;;;;;;;;;;2.20;99.90;;;;;;5035396;28;20404;-78
2022/01/12 01:03:10;;;;;;;;;;;2.20;99.90;;;;;;5052826;28;19920;-78
2022/01/12 01:05:36;;;;;;;;;;;2.20;99.90;;;;;;5053192;28;19990;-78
2022/01/12 01:08:02;;;;;;;;;;;2.20;99.90;;;;;;5054426;28;19913;-78
2022/01/12 01:10:44;;;;;;;;;;;2.20;1.00;;;;;;5052982;28;19967;-79
2022/01/12 01:13:10;;;;;;;;;;;2.20;1.00;;;;;;5028155;28;19996;-78
2022/01/12 01:15:55;;;;;;;;;;;2.20;1.80;;;;;;5034770;28;19959;-78
2022/01/12 01:26:34;;;;;;;;;;;2.10;99.90;;;;;;5052740;28;19925;-78
2022/01/12 01:29:00;;;;;;;;;;;2.10;99.90;;;;;;5034336;28;19912;-79
2022/01/12 01:31:31;;;;;;;;;;;2.10;1.00;;;;;;5035599;28;19917;-79
2022/01/12 01:33:59;;;;;;;;;;;2.20;41.90;;;;;;5054306;28;19912;-78
2022/01/12 01:36:27;;;;;;;;;;;2.20;32.60;;;;;;5052305;28;19954;-78
2022/01/12 01:38:53;;;;;;;;;;;2.30;1.00;;;;;;5033744;28;20426;-78
2022/01/12 01:41:21;;;;;;;;;;;2.40;99.90;;;;;;5034358;28;19916;-78
2022/01/12 01:54:44;;;;;;;;;;;2.70;99.90;;;;;;5052662;28;20296;-78
2022/01/12 01:57:10;;;;;;;;;;;2.70;1.00;;;;;;5038571;28;19992;-78
2022/01/12 01:59:35;;;;;;;;;;;2.70;1.00;;;;;;5037031;28;19937;-79
2022/01/12 02:02:00;;;;;;;;;;;2.70;1.00;;;;;;5055103;28;20732;-78
2022/01/12 02:04:26;;;;;;;;;;;2.70;1.00;;;;;;5056093;28;19920;-78
2022/01/12 02:06:54;;;;;;;;;;;2.80;1.00;;;;;;5038360;28;19912;-78
2022/01/12 02:09:20;;;;;;;;;;;2.80;1.00;;;;;;5058103;28;20462;-78
2022/01/12 02:11:49;;;;;;;;;;;2.90;1.00;;;;;;5040395;28;19920;-78
2022/01/12 02:14:14;;;;;;;;;;;2.90;1.00;;;;;;5039153;28;20015;-78
2022/01/12 02:16:52;;;;;;;;;;;2.90;1.00;;;;;;5044441;28;19974;-78
2022/01/12 02:19:41;;;;;;;;;;;3.00;1.00;;;;;;5044600;28;19917;-78
2022/01/12 02:35:53;;;;;;;;;;;2.70;1.00;;;;;;5024991;28;19947;-78
2022/01/12 02:41:03;;;;;;;;;;;2.70;1.00;;;;;;5055576;28;19919;-78
2022/01/12 02:50:32;;;;;;;;;;;2.70;11.70;;;;;;5056544;28;20003;-78
2022/01/12 02:54:38;;;;;;;;;;;2.60;99.90;;;;;;5001258;28;19914;-78
2022/01/12 02:57:03;;;;;;;;;;;2.60;1.00;;;;;;5037517;28;19956;-78
2022/01/12 02:59:29;;;;;;;;;;;2.60;1.00;;;;;;5055520;28;19920;-78
2022/01/12 03:04:29;;;;;;;;;;;2.60;1.00;;;;;;5055026;28;19923;-77
2022/01/12 03:07:03;;;;;;;;;;;2.70;1.00;;;;;;5036889;28;20015;-78
2022/01/12 03:09:29;;;;;;;;;;;2.70;1.00;;;;;;5054762;28;19916;-78
2022/01/12 03:11:54;;;;;;;;;;;2.70;99.90;;;;;;5037577;28;19963;-78
2022/01/12 03:14:20;;;;;;;;;;;2.60;92.60;;;;;;5053094;28;19999;-79
2022/01/12 03:16:46;;;;;;;;;;;2.60;29.60;;;;;;5054991;28;19954;-78
2022/01/12 03:19:11;;;;;;;;;;;2.60;25.00;;;;;;5057254;28;20015;-78
2022/01/12 03:21:37;;;;;;;;;;;2.50;99.90;;;;;;5041040;28;20295;-78
2022/01/12 03:24:02;;;;;;;;;;;2.50;99.90;;;;;;5058370;28;19920;-78
2022/01/12 03:26:29;;;;;;;;;;;2.40;99.90;;;;;;5041537;28;19917;-78
2022/01/12 03:28:56;;;;;;;;;;;2.40;99.90;;;;;;5056198;28;19917;-78
2022/01/12 03:31:23;;;;;;;;;;;2.40;1.00;;;;;;5037460;28;19970;-78
2022/01/12 03:33:54;;;;;;;;;;;2.30;1.00;;;;;;5036671;28;19913;-78
2022/01/12 03:36:26;;;;;;;;;;;2.30;99.90;;;;;;5036338;28;19913;-78
2022/01/12 03:38:53;;;;;;;;;;;2.30;1.00;;;;;;5037076;28;19912;-78
2022/01/12 03:41:18;;;;;;;;;;;2.30;1.00;;;;;;5036432;28;20461;-78
2022/01/12 03:43:44;;;;;;;;;;;2.30;99.90;;;;;;5036711;28;19908;-78
2022/01/12 03:46:10;;;;;;;;;;;2.30;99.90;;;;;;5035824;28;20404;-78
2022/01/12 03:48:35;;;;;;;;;;;2.40;99.90;;;;;;5054512;28;19959;-78
2022/01/12 03:51:00;;;;;;;;;;;2.40;91.70;;;;;;5053850;28;19920;-79
2022/01/12 03:53:26;;;;;;;;;;;2.40;1.00;;;;;;5053912;28;20452;-78
2022/01/12 03:55:52;;;;;;;;;;;2.50;1.00;;;;;;5030324;28;19920;-78
2022/01/12 03:58:17;;;;;;;;;;;2.50;1.00;;;;;;5048768;28;19920;-78
2022/01/12 04:00:43;;;;;;;;;;;2.60;99.90;;;;;;5050226;28;19917;-78
2022/01/12 04:03:09;;;;;;;;;;;2.70;99.90;;;;;;5051578;28;19948;-78
2022/01/12 04:08:19;;;;;;;;;;;2.90;1.00;;;;;;5054526;28;19913;-78
2022/01/12 04:10:45;;;;;;;;;;;2.80;1.00;;;;;;5035764;28;19917;-78
2022/01/12 04:13:10;;;;;;;;;;;2.90;1.00;;;;;;5028624;28;19912;-79
2022/01/12 04:15:36;;;;;;;;;;;2.90;1.00;;;;;;5036338;28;20395;-79
2022/01/12 04:18:01;;;;;;;;;;;2.90;1.00;;;;;;5051307;28;19923;-79
2022/01/12 04:20:28;;;;;;;;;;;2.90;1.00;;;;;;5052309;28;19913;-78
2022/01/12 04:25:38;;;;;;;;;;;2.90;99.90;;;;;;5053532;28;19958;-78
2022/01/12 04:28:04;;;;;;;;;;;2.90;99.90;;;;;;5054688;28;20377;-78
2022/01/12 04:30:29;;;;;;;;;;;3.00;99.90;;;;;;5035722;28;20332;-78
2022/01/12 04:32:54;;;;;;;;;;;3.00;99.90;;;;;;5052718;28;19952;-78
2022/01/12 04:35:24;;;;;;;;;;;3.00;99.90;;;;;;5051613;28;19974;-78
2022/01/12 04:37:50;;;;;;;;;;;3.00;99.90;;;;;;5035251;28;19912;-78
2022/01/12 04:40:16;;;;;;;;;;;3.00;99.90;;;;;;5053557;28;20388;-78
2022/01/12 04:42:41;;;;;;;;;;;3.00;99.90;;;;;;5053122;28;19920;-78
2022/01/12 04:45:31;;;;;;;;;;;3.10;99.90;;;;;;5053323;28;20373;-78
2022/01/12 04:48:01;;;;;;;;;;;3.10;99.90;;;;;;5036154;28;19913;-78
2022/01/12 04:50:28;;;;;;;;;;;3.10;99.90;;;;;;5053086;28;19931;-78
2022/01/12 04:52:54;;;;;;;;;;;3.10;99.90;;;;;;5035710;28;19948;-78
2022/01/12 04:55:19;;;;;;;;;;;3.10;99.90;;;;;;5034888;28;19913;-78
2022/01/12 04:57:45;;;;;;;;;;;3.10;99.90;;;;;;5053224;28;19920;-78
2022/01/12 05:00:14;;;;;;;;;;;3.10;99.90;;;;;;5034727;28;19913;-79
2022/01/12 05:08:23;;;;;;;;;;;3.10;99.90;;;;;;5054252;28;19935;-78
2022/01/12 05:13:33;;;;;;;;;;;3.10;99.90;;;;;;5051597;28;19919;-78
2022/01/12 05:16:00;;;;;;;;;;;3.20;99.90;;;;;;5052454;28;19916;-78
2022/01/12 05:18:26;;;;;;;;;;;3.20;99.90;;;;;;5034467;28;19943;-78
2022/01/12 05:20:51;;;;;;;;;;;3.30;99.90;;;;;;5035476;28;19913;-78
2022/01/12 05:23:16;;;;;;;;;;;3.30;99.90;;;;;;5035655;28;19995;-78
2022/01/12 05:25:46;;;;;;;;;;;3.30;99.90;;;;;;5034177;28;19919;-78
2022/01/12 05:28:11;;;;;;;;;;;3.40;99.90;;;;;;5053051;28;19912;-78
2022/01/12 05:30:37;;;;;;;;;;;3.40;99.90;;;;;;5054723;28;19913;-78
2022/01/12 05:33:02;;;;;;;;;;;3.40;99.90;;;;;;5059873;28;19931;-78
2022/01/12 05:35:32;;;;;;;;;;;3.40;99.90;;;;;;5055719;28;19917;-79
2022/01/12 05:37:58;;;;;;;;;;;3.40;99.90;;;;;;5050958;28;20077;-78
2022/01/12 05:40:23;;;;;;;;;;;3.40;99.90;;;;;;5051583;28;19913;-78
2022/01/12 05:42:53;;;;;;;;;;;3.40;99.90;;;;;;5033679;28;20309;-78
2022/01/12 05:45:20;;;;;;;;;;;3.40;99.90;;;;;;5035222;28;19955;-78
2022/01/12 05:50:12;;;;;;;;;;;3.50;99.90;;;;;;5050339;28;19990;-78
2022/01/12 05:52:37;;;;;;;;;;;3.50;99.90;;;;;;5034288;28;19948;-78
2022/01/12 05:55:03;;;;;;;;;;;3.50;99.90;;;;;;5033239;28;19912;-78
2022/01/12 05:57:30;;;;;;;;;;;3.50;99.90;;;;;;5034096;28;19924;-79
2022/01/12 05:59:59;;;;;;;;;;;3.50;99.90;;;;;;5035287;28;20365;-78
2022/01/12 06:02:25;;;;;;;;;;;3.60;99.90;;;;;;5034265;28;20484;-78
2022/01/12 06:04:50;;;;;;;;;;;3.60;99.90;;;;;;5054373;28;20007;-78
2022/01/12 06:07:16;;;;;;;;;;;3.70;99.90;;;;;;5048353;28;19947;-78
2022/01/12 06:09:42;;;;;;;;;;;3.70;99.90;;;;;;5035761;28;19920;-78
2022/01/12 06:12:07;;;;;;;;;;;3.70;99.90;;;;;;5048591;28;19941;-78
2022/01/12 06:14:33;;;;;;;;;;;3.60;99.90;;;;;;5035829;28;19913;-78
2022/01/12 06:16:58;;;;;;;;;;;3.60;99.90;;;;;;5052222;28;19928;-78
2022/01/12 06:19:24;;;;;;;;;;;3.60;99.90;;;;;;5052502;28;19916;-78
2022/01/12 06:21:49;;;;;;;;;;;3.50;99.90;;;;;;5051966;28;19913;-78
2022/01/12 06:24:15;;;;;;;;;;;3.50;99.90;;;;;;5029371;23;19925;-80
2022/01/12 06:26:42;;;;;;;;;;;3.50;99.90;;;;;;5010754;28;20339;-81
2022/01/12 06:31:36;;;;;;;;;;;3.40;99.90;;;;;;5009293;28;20358;-80
2022/01/12 06:34:02;;;;;;;;;;;3.40;99.90;;;;;;5000298;28;19913;-79
2022/01/12 06:36:27;;;;;;;;;;;3.40;99.90;;;;;;4974158;28;19921;-80
2022/01/12 06:38:53;;;;;;;;;;;3.40;99.90;;;;;;4993031;28;20437;-78
2022/01/12 06:41:19;;;;;;;;;;;3.40;99.90;;;;;;4985157;28;19918;-80
2022/01/12 06:43:45;;;;;;;;;;;3.50;99.90;;;;;;4995597;28;19921;-80
2022/01/12 06:46:10;;;;;;;;;;;3.50;99.90;;;;;;4988403;28;19921;-80
2022/01/12 06:48:36;;;;;;;;;;;3.50;99.90;;;;;;4990704;28;19914;-81
2022/01/12 06:51:03;;;;;;;;;;;3.60;99.90;;;;;;4997441;28;19940;-79
2022/01/12 06:53:29;;;;;;;;;;;3.60;99.90;;;;;;4997480;28;20039;-78
2022/01/12 06:55:55;;;;;;;;;;;3.70;99.90;;;;;;4980082;28;19969;-80
2022/01/12 06:58:20;;;;;;;;;;;3.70;99.90;;;;;;4997329;28;19922;-80
2022/01/12 07:00:47;;;;;;;;;;;3.80;99.90;;;;;;4996058;28;19996;-80
2022/01/12 07:03:12;;;;;;;;;;;3.80;99.90;;;;;;4973346;28;19922;-78
2022/01/12 07:05:38;;;;;;;;;;;3.90;99.90;;;;;;4994586;28;20383;-80
2022/01/12 07:08:04;;;;;;;;;;;3.90;99.90;;;;;;4992104;28;20326;-80
2022/01/12 07:10:29;;;;;;;;;;;3.90;99.90;;;;;;4996522;28;20318;-81
2022/01/12 07:12:55;;;;;;;;;;;4.00;99.90;;;;;;4994398;28;19918;-80
2022/01/12 07:15:20;;;;;;;;;;;4.10;99.90;;;;;;4994377;28;19914;-83
2022/01/12 07:17:46;;;;;;;;;;;4.20;99.90;;;;;;4997003;28;19914;-82
2022/01/12 07:20:11;;;;;;;;;;;4.30;99.90;;;;;;4997708;28;19913;-82
2022/01/12 07:22:37;;;;;;;;;;;4.30;99.90;;;;;;4991250;28;19918;-80
2022/01/12 07:25:02;;;;;;;;;;;4.40;99.90;;;;;;4975854;28;19918;-82
2022/01/12 07:27:28;;;;;;;;;;;4.40;95.70;;;;;;4973720;28;20271;-82
2022/01/12 07:29:53;;;;;;;;;;;4.40;77.00;;;;;;4985970;28;19934;-82
2022/01/12 07:32:19;;;;;;;;;;;4.40;46.70;;;;;;4996791;28;19921;-83
2022/01/12 07:34:44;;;;;;;;;;;4.40;36.80;;;;;;4996783;28;20333;-81
2022/01/12 07:37:10;;;;;;;;;;;4.40;29.20;;;;;;4995762;28;20004;-81
2022/01/12 07:39:36;;;;;;;;;;;4.40;30.00;;;;;;4989194;28;19914;-82
2022/01/12 07:42:01;;;;;;;;;;;4.40;31.80;;;;;;4995994;28;19977;-81
2022/01/12 07:44:27;;;;;;;;;;;4.40;30.80;;;;;;4997536;28;20406;-82
2022/01/12 07:46:52;;;;;;;;;;;4.40;24.90;;;;;;4994982;28;20386;-81
2022/01/12 07:49:17;;;;;;;;;;;4.40;20.80;;;;;;4995426;28;19914;-83
2022/01/12 07:51:43;;;;;;;;;;;4.40;16.20;;;;;;4995289;28;19913;-82
2022/01/12 07:54:08;;;;;;;;;;;4.40;13.00;;;;;;4977329;28;20042;-81
2022/01/12 07:56:34;;;;;;;;;;;4.40;12.60;;;;;;4988552;28;19914;-81
2022/01/12 07:58:59;;;;;;;;;;;4.40;14.00;;;;;;4996922;28;19913;-82
2022/01/12 08:01:25;;;;;;;;;;;4.50;14.60;;;;;;4997232;28;20028;-82
2022/01/12 08:03:51;;;;;;;;;;;4.50;14.60;;;;;;4990817;28;20294;-81
2022/01/12 08:06:17;;;;;;;;;;;4.50;13.30;;;;;;4994379;28;19918;-84
2022/01/12 08:08:42;;;;;;;;;;;4.50;13.30;;;;;;4995035;28;19910;-81
2022/01/12 08:11:08;;;;;;;;;;;4.50;12.00;;;;;;4996849;28;19913;-81
2022/01/12 08:13:33;;;;;;;;;;;4.60;8.90;;;;;;4996530;28;19914;-82
2022/01/12 08:15:59;;;;;;;;;;;4.60;5.70;;;;;;4979040;28;19913;-81
2022/01/12 08:18:24;;;;;;;;;;;4.60;1.60;;;;;;4996727;28;19914;-81
2022/01/12 08:20:50;;;;;;;;;;;4.50;18.50;;;;;;4996034;28;19922;-83
2022/01/12 08:23:15;;;;;;;;;;;4.50;27.90;;;;;;4991036;28;19924;-81
2022/01/12 08:25:41;;;;;;;;;;;4.50;37.00;;;;;;4996687;28;19937;-81
2022/01/12 08:28:06;;;;;;;;;;;4.50;63.00;;;;;;4996005;28;19920;-80
2022/01/12 08:30:34;;;;;;;;;;;4.50;95.10;;;;;;4979638;28;20286;-81
2022/01/12 08:33:00;;;;;;;;;;;4.50;99.90;;;;;;4996996;28;20041;-81
2022/01/12 08:35:27;;;;;;;;;;;4.50;99.90;;;;;;5009039;28;19914;-81
2022/01/12 08:37:53;;;;;;;;;;;4.50;99.90;;;;;;4995777;28;19913;-82
2022/01/12 08:40:19;;;;;;;;;;;4.50;99.90;;;;;;4995839;28;19917;-81
2022/01/12 08:42:45;;;;;;;;;;;4.50;99.90;;;;;;4996039;28;19929;-80
2022/01/12 08:45:11;;;;;;;;;;;4.50;99.90;;;;;;4997888;28;20379;-82
2022/01/12 08:47:36;;;;;;;;;;;4.50;99.90;;;;;;4998139;28;19921;-80
2022/01/12 08:50:03;;;;;;;;;;;4.50;99.90;;;;;;4993102;28;19913;-81
2022/01/12 08:52:30;;;;;;;;;;;4.50;99.90;;;;;;4995341;28;19921;-80
2022/01/12 08:54:55;;;;;;;;;;;4.50;99.90;;;;;;4993184;28;19914;-81
2022/01/12 08:57:21;;;;;;;;;;;4.60;99.90;;;;;;4996349;28;19917;-80
2022/01/12 08:59:46;;;;;;;;;;;4.60;99.90;;;;;;5000353;28;19921;-80
2022/01/12 09:02:14;;;;;;;;;;;4.60;99.90;;;;;;4993464;28;20012;-81
2022/01/12 09:04:43;;;;;;;;;;;4.60;99.90;;;;;;4977434;28;19924;-79
2022/01/12 09:07:08;;;;;;;;;;;4.60;99.90;;;;;;4995460;28;19916;-81
2022/01/12 09:09:35;;;;;;;;;;;4.60;99.90;;;;;;4993867;28;20425;-80
2022/01/12 09:12:01;;;;;;;;;;;4.60;99.90;;;;;;4995305;28;19968;-81
2022/01/12 09:14:27;;;;;;;;;;;4.60;99.90;;;;;;4975956;28;19956;-81
2022/01/12 09:16:54;;;;;;;;;;;4.60;1.00;;;;;;4997183;28;20336;-82
2022/01/12 09:19:20;;;;;;;;;;;4.60;1.00;;;;;;4991835;28;19914;-80
2022/01/12 09:21:46;;;;;;;;;;;4.60;1.00;;;;;;4987464;28;20011;-81
2022/01/12 09:24:11;;;;;;;;;;;4.60;1.00;;;;;;4996550;28;20290;-79
2022/01/12 09:26:36;;;;;;;;;;;4.60;39.50;;;;;;4998895;28;19913;-80
2022/01/12 09:29:02;;;;;;;;;;;4.60;99.90;;;;;;4976225;28;19910;-81
2022/01/12 09:31:28;;;;;;;;;;;4.60;99.90;;;;;;4998549;28;19913;-80
2022/01/12 09:33:53;;;;;;;;;;;4.60;99.90;;;;;;4998360;28;19994;-80
2022/01/12 09:36:19;;;;;;;;;;;4.60;99.90;;;;;;4991340;28;21533;-81
2022/01/12 09:38:44;;;;;;;;;;;4.70;99.90;;;;;;4992440;28;20012;-81
2022/01/12 09:41:10;;;;;;;;;;;4.70;99.90;;;;;;4992131;28;20388;-80
2022/01/12 09:43:36;;;;;;;;;;;4.80;99.90;;;;;;4987574;28;19969;-81
2022/01/12 09:46:02;;;;;;;;;;;4.80;1.00;;;;;;4991491;28;19987;-80
2022/01/12 09:48:33;;;;;;;;;;;4.80;99.90;;;;;;4989424;28;20366;-82
2022/01/12 09:51:01;;;;;;;;;;;4.80;1.00;;;;;;4983390;28;19918;-82
2022/01/12 09:53:28;;;;;;;;;;;4.80;1.00;;;;;;4994381;28;20046;-83
2022/01/12 09:55:54;;;;;;;;;;;4.90;1.00;;;;;;4995012;28;19910;-82
2022/01/12 09:58:19;;;;;;;;;;;5.00;1.00;;;;;;4991976;28;20402;-81
2022/01/12 10:00:55;;;;;;;;;;;5.00;1.00;;;;;;4987047;28;19954;-81
2022/01/12 10:03:23;;;;;;;;;;;5.00;99.90;;;;;;4994226;28;19914;-82
2022/01/12 10:05:49;;;;;;;;;;;5.10;99.90;;;;;;4986702;28;19914;-82
2022/01/12 10:08:15;;;;;;;;;;;5.10;99.90;;;;;;4993166;28;19914;-82
2022/01/12 10:10:42;;;;;;;;;;;5.10;99.90;;;;;;4994330;28;20397;-82
2022/01/12 10:13:22;;;;;;;;;;;5.10;99.90;;;;;;4994456;28;19929;-82
2022/01/12 10:15:50;;;;;;;;;;;5.10;1.00;;;;;;4994135;28;19920;-81
2022/01/12 10:18:15;;;;;;;;;;;5.00;1.00;;;;;;4979503;28;19914;-82
2022/01/12 10:20:45;;;;;;;;;;;5.00;58.30;;;;;;4997551;28;20298;-81
2022/01/12 10:23:12;;;;;;;;;;;5.00;99.90;;;;;;4997988;28;19961;-81
2022/01/12 10:25:37;;;;;;;;;;;5.00;1.00;;;;;;4992764;28;19914;-81
2022/01/12 10:28:16;;;;;;;;;;;4.90;1.00;;;;;;4996418;28;19924;-79
2022/01/12 10:30:56;;;;;;;;;;;4.90;99.90;;;;;;4993813;28;20003;-81
2022/01/12 10:33:26;;;;;;;;;;;4.90;1.00;;;;;;4993912;28;19913;-81
2022/01/12 10:35:59;;;;;;;;;;;4.90;99.90;;;;;;4991339;28;19925;-80
2022/01/12 10:38:25;;;;;;;;;;;4.90;1.00;;;;;;4998174;28;19918;-81
2022/01/12 10:40:57;;;;;;;;;;;4.90;99.90;;;;;;4998627;28;20295;-81
2022/01/12 10:43:27;;;;;;;;;;;4.90;99.90;;;;;;4986970;28;20044;-82
2022/01/12 10:45:52;;;;;;;;;;;4.90;1.00;;;;;;4995329;28;20303;-82
2022/01/12 10:48:17;;;;;;;;;;;4.90;1.00;;;;;;4997630;28;19918;-81
2022/01/12 10:50:53;;;;;;;;;;;4.90;1.00;;;;;;4993674;28;19921;-82
2022/01/12 10:53:27;;;;;;;;;;;4.90;1.00;;;;;;4997552;28;19968;-82
2022/01/12 10:56:11;;;;;;;;;;;4.90;1.00;;;;;;4979114;28;19953;-81
2022/01/12 10:58:38;;;;;;;;;;;5.00;19.40;;;;;;4996572;28;19914;-82
2022/01/12 11:01:03;;;;;;;;;;;5.10;1.00;;;;;;4992316;28;19969;-82
2022/01/12 11:03:30;;;;;;;;;;;5.20;1.00;;;;;;4998815;28;19913;-80
2022/01/12 11:05:55;;;;;;;;;;;5.20;1.00;;;;;;4999813;28;19914;-81
2022/01/12 11:08:23;;;;;;;;;;;5.20;1.00;;;;;;5007637;28;19933;-81
2022/01/12 11:10:49;;;;;;;;;;;5.10;1.00;;;;;;4981080;28;19914;-82
2022/01/12 11:13:14;;;;;;;;;;;5.20;1.00;;;;;;4995552;28;19916;-81
2022/01/12 11:15:40;;;;;;;;;;;5.20;1.00;;;;;;4996648;28;19913;-81
2022/01/12 11:18:07;;;;;;;;;;;5.30;1.00;;;;;;4989394;28;19995;-80
2022/01/12 11:20:33;;;;;;;;;;;5.30;1.00;;;;;;4996750;28;19948;-81
2022/01/12 11:23:08;;;;;;;;;;;5.30;99.90;;;;;;4995906;28;19918;-82
2022/01/12 11:25:35;;;;;;;;;;;5.40;99.90;;;;;;5001841;28;19918;-82
2022/01/12 11:28:15;;;;;;;;;;;5.40;99.90;;;;;;4997917;28;19914;-79
2022/01/12 11:30:46;;;;;;;;;;;5.50;99.90;;;;;;5001403;28;19985;-79
2022/01/12 11:33:12;;;;;;;;;;;5.50;63.80;;;;;;4991370;28;19957;-81
2022/01/12 11:35:39;;;;;;;;;;;5.60;99.90;;;;;;4995256;28;19925;-82
2022/01/12 11:38:05;;;;;;;;;;;5.60;1.00;;;;;;4980965;28;20004;-82
2022/01/12 11:40:41;;;;;;;;;;;5.60;1.00;;;;;;4997443;28;20298;-80
2022/01/12 11:43:20;;;;;;;;;;;5.60;1.00;;;;;;4986192;28;20001;-80
2022/01/12 11:45:46;;;;;;;;;;;5.60;1.00;;;;;;4993237;28;20009;-80
2022/01/12 11:48:12;;;;;;;;;;;5.60;1.00;;;;;;4996567;28;20008;-80
2022/01/12 11:50:37;;;;;;;;;;;5.60;99.90;;;;;;4995195;28;20331;-82
2022/01/12 11:53:03;;;;;;;;;;;5.50;99.90;;;;;;4980692;28;19937;-78
2022/01/12 11:55:34;;;;;;;;;;;5.60;1.00;;;;;;4996922;28;19960;-81
2022/01/12 11:58:03;;;;;;;;;;;5.60;1.00;;;;;;4978535;28;19948;-80
2022/01/12 12:00:30;;;;;;;;;;;5.60;99.90;;;;;;4997185;28;19967;-81
2022/01/12 12:02:56;;;;;;;;;;;5.60;99.90;;;;;;4995955;28;20396;-82
2022/01/12 12:05:25;;;;;;;;;;;5.70;1.00;;;;;;4994007;28;19918;-82
2022/01/12 12:07:51;;;;;;;;;;;5.80;1.00;;;;;;4996490;28;19910;-81
2022/01/12 12:10:18;;;;;;;;;;;5.80;99.90;;;;;;4996088;28;20333;-80
2022/01/12 12:12:44;;;;;;;;;;;5.80;99.90;;;;;;4979257;28;19913;-80
2022/01/12 12:15:11;;;;;;;;;;;5.90;99.90;;;;;;4996165;28;19920;-79
2022/01/12 12:17:37;;;;;;;;;;;5.90;99.90;;;;;;4992419;28;19996;-81
2022/01/12 12:20:07;;;;;;;;;;;5.80;99.90;;;;;;5008580;28;19964;-78
2022/01/12 12:22:34;;;;;;;;;;;5.80;99.90;;;;;;4995633;28;19941;-82
2022/01/12 12:25:06;;;;;;;;;;;5.80;1.00;;;;;;5014456;23;19933;-78
2022/01/12 12:27:32;;;;;;;;;;;5.80;99.90;;;;;;5037958;28;19913;-78
2022/01/12 12:29:58;;;;;;;;;;;5.80;55.00;;;;;;5055576;28;19920;-78
2022/01/12 12:32:37;;;;;;;;;;;5.90;99.90;;;;;;5038960;28;19917;-79
2022/01/12 12:35:12;;;;;;;;;;;5.90;99.90;;;;;;5047997;28;20281;-79
2022/01/12 12:37:39;;;;;;;;;;;6.00;99.90;;;;;;5017332;28;19967;-78
2022/01/12 12:40:31;;;;;;;;;;;5.90;99.90;;;;;;5014546;28;20352;-79
2022/01/12 12:43:01;;;;;;;;;;;6.00;1.00;;;;;;5017391;28;20386;-78
2022/01/12 12:45:35;;;;;;;;;;;6.00;1.00;;;;;;5011344;28;19913;-79
2022/01/12 12:48:05;;;;;;;;;;;6.00;1.00;;;;;;5019405;28;20378;-78
2022/01/12 12:50:32;;;;;;;;;;;5.90;99.90;;;;;;5029789;28;19920;-78
2022/01/12 12:52:58;;;;;;;;;;;5.90;1.00;;;;;;5017306;28;19914;-78
2022/01/12 12:55:24;;;;;;;;;;;5.80;99.90;;;;;;5017946;28;19941;-78
2022/01/12 12:57:50;;;;;;;;;;;5.80;20.50;;;;;;5045573;28;19914;-78
2022/01/12 13:00:21;;;;;;;;;;;5.80;1.00;;;;;;5017030;28;19925;-78
2022/01/12 13:02:48;;;;;;;;;;;5.80;99.90;;;;;;5017790;28;19925;-78
2022/01/12 13:05:16;;;;;;;;;;;5.80;1.00;;;;;;5015228;28;19940;-79
2022/01/12 13:07:42;;;;;;;;;;;5.80;1.00;;;;;;5030805;28;20313;-80
2022/01/12 13:10:14;;;;;;;;;;;5.80;1.00;;;;;;5030662;28;20092;-78
2022/01/12 13:12:50;;;;;;;;;;;5.80;99.90;;;;;;5028668;28;19913;-79
2022/01/12 13:15:17;;;;;;;;;;;5.80;99.90;;;;;;5014453;28;19920;-79
2022/01/12 13:17:42;;;;;;;;;;;5.70;1.00;;;;;;5020319;28;19996;-79
2022/01/12 13:22:49;;;;;;;;;;;5.80;1.00;;;;;;5004491;28;20397;-79
2022/01/12 13:25:15;;;;;;;;;;;5.80;1.00;;;;;;5035680;28;19999;-79
2022/01/12 13:27:42;;;;;;;;;;;5.90;1.00;;;;;;4998726;28;19929;-80
2022/01/12 13:30:09;;;;;;;;;;;5.90;1.00;;;;;;5011374;28;19914;-79
2022/01/12 13:32:36;;;;;;;;;;;6.00;1.00;;;;;;5016788;28;19917;-81
2022/01/12 13:35:08;;;;;;;;;;;6.00;99.90;;;;;;5024385;28;19914;-80
2022/01/12 13:37:34;;;;;;;;;;;5.90;99.90;;;;;;5037580;28;19920;-80
2022/01/12 13:40:10;;;;;;;;;;;6.00;99.90;;;;;;5032844;28;19914;-80
2022/01/12 13:42:47;;;;;;;;;;;6.00;99.90;;;;;;5031524;28;19924;-80
2022/01/12 13:45:16;;;;;;;;;;;6.10;99.90;;;;;;5016537;28;19918;-80
2022/01/12 13:47:42;;;;;;;;;;;6.10;99.90;;;;;;5049357;28;19914;-79
2022/01/12 13:50:09;;;;;;;;;;;6.20;99.90;;;;;;5031777;28;19917;-80
2022/01/12 13:52:35;;;;;;;;;;;6.20;35.70;;;;;;5021507;28;19921;-80
2022/01/12 13:55:11;;;;;;;;;;;6.10;1.00;;;;;;5029093;28;19951;-79
2022/01/12 13:57:37;;;;;;;;;;;6.20;1.00;;;;;;5024371;28;19935;-80
2022/01/12 14:00:03;;;;;;;;;;;6.10;1.00;;;;;;5020094;28;20294;-80
2022/01/12 14:02:30;;;;;;;;;;;6.10;99.90;;;;;;5022155;28;19921;-79
2022/01/12 14:05:06;;;;;;;;;;;6.10;1.00;;;;;;5034843;28;19913;-80
2022/01/12 14:07:37;;;;;;;;;;;6.10;99.90;;;;;;5019212;28;20338;-80
2022/01/12 14:10:04;;;;;;;;;;;6.10;1.00;;;;;;5019823;28;19917;-80
2022/01/12 14:12:29;;;;;;;;;;;6.10;1.00;;;;;;5033660;28;20588;-80
2022/01/12 14:15:08;;;;;;;;;;;6.20;1.00;;;;;;5019030;28;19913;-80
2022/01/12 14:17:43;;;;;;;;;;;6.10;1.00;;;;;;5018501;28;19956;-80
2022/01/12 14:20:21;;;;;;;;;;;6.10;1.00;;;;;;5020381;28;19959;-80
2022/01/12 14:22:49;;;;;;;;;;;6.10;99.90;;;;;;5019567;28;20243;-80
2022/01/12 14:25:19;;;;;;;;;;;6.10;1.00;;;;;;5035924;28;19917;-80
2022/01/12 14:27:49;;;;;;;;;;;6.00;1.00;;;;;;5020516;28;19913;-80
2022/01/12 14:30:16;;;;;;;;;;;6.00;1.00;;;;;;5019090;28;19914;-80
2022/01/12 14:32:42;;;;;;;;;;;6.00;99.90;;;;;;5017194;28;19960;-81
2022/01/12 14:35:09;;;;;;;;;;;6.00;99.90;;;;;;5033975;28;19921;-79
2022/01/12 14:37:35;;;;;;;;;;;6.00;99.90;;;;;;5034490;28;19960;-80
2022/01/12 14:40:01;;;;;;;;;;;6.00;99.90;;;;;;5019607;28;19917;-80
2022/01/12 14:42:27;;;;;;;;;;;6.00;99.90;;;;;;5020906;28;19917;-80
2022/01/12 14:44:52;;;;;;;;;;;6.00;99.90;;;;;;5033794;28;19964;-80
2022/01/12 14:47:18;;;;;;;;;;;6.00;99.90;;;;;;5052205;28;20412;-81
2022/01/12 14:49:43;;;;;;;;;;;6.10;99.90;;;;;;5017350;28;19963;-80
2022/01/12 14:52:08;;;;;;;;;;;6.00;99.90;;;;;;5017758;28;20313;-82
2022/01/12 14:54:34;;;;;;;;;;;6.00;99.90;;;;;;5016827;28;19917;-80
2022/01/12 14:56:59;;;;;;;;;;;6.00;99.90;;;;;;5020490;28;19920;-81
2022/01/12 14:59:25;;;;;;;;;;;6.00;99.90;;;;;;5018199;28;20305;-81
2022/01/12 15:01:50;;;;;;;;;;;6.00;99.90;;;;;;5017263;28;19925;-80
2022/01/12 15:04:16;;;;;;;;;;;6.00;99.90;;;;;;5030537;28;19923;-80
2022/01/12 15:06:41;;;;;;;;;;;6.00;99.90;;;;;;5016914;28;19920;-80
2022/01/12 15:09:07;;;;;;;;;;;5.90;1.00;;;;;;5033059;28;19917;-80
2022/01/12 15:11:39;;;;;;;;;;;6.00;1.00;;;;;;5021899;28;19963;-80
2022/01/12 15:14:22;;;;;;;;;;;6.00;1.00;;;;;;5017405;28;19914;-80
2022/01/12 15:16:47;;;;;;;;;;;5.90;1.00;;;;;;5005756;28;19972;-80
2022/01/12 15:19:13;;;;;;;;;;;5.90;21.20;;;;;;5015369;28;19921;-80
2022/01/12 15:21:38;;;;;;;;;;;5.90;74.60;;;;;;5033404;28;20397;-81
2022/01/12 15:24:04;;;;;;;;;;;5.90;82.40;;;;;;5015190;28;19914;-80
2022/01/12 15:26:29;;;;;;;;;;;5.90;99.90;;;;;;5033041;28;19925;-80
2022/01/12 15:28:55;;;;;;;;;;;5.80;99.90;;;;;;5022389;28;20008;-80
2022/01/12 15:31:20;;;;;;;;;;;5.80;99.90;;;;;;5021223;28;19945;-81
2022/01/12 15:33:47;;;;;;;;;;;5.80;99.90;;;;;;5018265;28;19913;-81
2022/01/12 15:36:12;;;;;;;;;;;5.70;99.90;;;;;;5012798;28;19917;-80
2022/01/12 15:38:37;;;;;;;;;;;5.70;99.90;;;;;;5012993;28;19924;-81
2022/01/12 15:41:03;;;;;;;;;;;5.70;99.90;;;;;;5051422;28;20632;-80
2022/01/12 15:43:28;;;;;;;;;;;5.60;99.90;;;;;;5018693;28;19914;-81
2022/01/12 15:45:54;;;;;;;;;;;5.60;99.90;;;;;;5018917;28;19973;-80
2022/01/12 15:48:19;;;;;;;;;;;5.60;99.90;;;;;;5031839;28;19920;-80
2022/01/12 15:50:45;;;;;;;;;;;5.60;99.90;;;;;;5017564;28;20302;-80